sensor_id;sensor_type;location;lat;lon;timestamp;temperature;humidity
60848;DHT22;46681;47.696;9.140;2023-05-14T00:00:43;14.60;67.50
60848;DHT22;46681;47.696;9.140;2023-05-14T00:03:10;14.60;67.40
60848;DHT22;46681;47.696;9.140;2023-05-14T00:05:36;14.50;67.40
60848;DHT22;46681;47.696;9.140;2023-05-14T00:08:01;14.50;67.40
60848;DHT22;46681;47.696;9.140;2023-05-14T00:10:27;14.50;67.40
60848;DHT22;46681;47.696;9.140;2023-05-14T00:12:52;14.50;67.40
60848;DHT22;46681;47.696;9.140;2023-05-14T00:15:18;14.40;67.40
60848;DHT22;46681;47.696;9.140;2023-05-14T00:17:44;14.40;67.50
60848;DHT22;46681;47.696;9.140;2023-05-14T00:20:10;14.40;67.40
60848;DHT22;46681;47.696;9.140;2023-05-14T00:22:35;14.40;67.30
60848;DHT22;46681;47.696;9.140;2023-05-14T00:25:11;14.40;67.40
60848;DHT22;46681;47.696;9.140;2023-05-14T00:27:39;14.40;67.20
60848;DHT22;46681;47.696;9.140;2023-05-14T00:30:05;14.30;67.40
60848;DHT22;46681;47.696;9.140;2023-05-14T00:32:33;14.30;67.40
60848;DHT22;46681;47.696;9.140;2023-05-14T00:34:58;14.30;67.50
60848;DHT22;46681;47.696;9.140;2023-05-14T00:37:29;14.30;67.40
60848;DHT22;46681;47.696;9.140;2023-05-14T00:39:57;14.30;67.40
60848;DHT22;46681;47.696;9.140;2023-05-14T00:42:23;14.30;67.50
60848;DHT22;46681;47.696;9.140;2023-05-14T00:44:48;14.30;67.40
60848;DHT22;46681;47.696;9.140;2023-05-14T00:47:14;14.30;67.30
60848;DHT22;46681;47.696;9.140;2023-05-14T00:49:44;14.30;67.30
60848;DHT22;46681;47.696;9.140;2023-05-14T00:52:11;14.30;67.50
60848;DHT22;46681;47.696;9.140;2023-05-14T00:54:37;14.30;67.50
60848;DHT22;46681;47.696;9.140;2023-05-14T00:57:03;14.30;67.50
60848;DHT22;46681;47.696;9.140;2023-05-14T00:59:33;14.30;67.50
60848;DHT22;46681;47.696;9.140;2023-05-14T01:02:00;14.30;67.60
60848;DHT22;46681;47.696;9.140;2023-05-14T01:04:26;14.30;67.50
60848;DHT22;46681;47.696;9.140;2023-05-14T01:09:49;14.30;67.50
60848;DHT22;46681;47.696;9.140;2023-05-14T01:17:45;14.30;67.50
60848;DHT22;46681;47.696;9.140;2023-05-14T01:20:14;14.30;67.50
60848;DHT22;46681;47.696;9.140;2023-05-14T01:22:43;14.30;67.50
60848;DHT22;46681;47.696;9.140;2023-05-14T01:25:09;14.30;67.60
60848;DHT22;46681;47.696;9.140;2023-05-14T01:27:41;14.30;67.50
60848;DHT22;46681;47.696;9.140;2023-05-14T01:32:50;14.30;67.50
60848;DHT22;46681;47.696;9.140;2023-05-14T01:35:16;14.30;67.50
60848;DHT22;46681;47.696;9.140;2023-05-14T01:37:45;14.30;67.50
60848;DHT22;46681;47.696;9.140;2023-05-14T01:40:12;14.30;67.50
60848;DHT22;46681;47.696;9.140;2023-05-14T01:42:40;14.30;67.50
60848;DHT22;46681;47.696;9.140;2023-05-14T01:45:12;14.30;67.60
60848;DHT22;46681;47.696;9.140;2023-05-14T01:47:38;14.30;67.50
60848;DHT22;46681;47.696;9.140;2023-05-14T01:50:05;14.30;67.60
60848;DHT22;46681;47.696;9.140;2023-05-14T01:52:31;14.30;67.60
60848;DHT22;46681;47.696;9.140;2023-05-14T01:54:56;14.30;67.60
60848;DHT22;46681;47.696;9.140;2023-05-14T01:57:23;14.30;67.60
60848;DHT22;46681;47.696;9.140;2023-05-14T01:59:51;14.30;67.60
60848;DHT22;46681;47.696;9.140;2023-05-14T02:02:22;14.20;67.40
60848;DHT22;46681;47.696;9.140;2023-05-14T02:04:49;14.30;67.60
60848;DHT22;46681;47.696;9.140;2023-05-14T02:07:16;14.30;67.60
60848;DHT22;46681;47.696;9.140;2023-05-14T02:09:41;14.30;67.60
60848;DHT22;46681;47.696;9.140;2023-05-14T02:12:10;14.30;67.50
60848;DHT22;46681;47.696;9.140;2023-05-14T02:14:37;14.30;67.60
60848;DHT22;46681;47.696;9.140;2023-05-14T02:17:04;14.30;67.60
60848;DHT22;46681;47.696;9.140;2023-05-14T02:19:30;14.30;67.60
60848;DHT22;46681;47.696;9.140;2023-05-14T02:21:58;14.30;67.60
60848;DHT22;46681;47.696;9.140;2023-05-14T02:24:25;14.30;67.50
60848;DHT22;46681;47.696;9.140;2023-05-14T02:26:52;14.30;67.60
60848;DHT22;46681;47.696;9.140;2023-05-14T02:29:21;14.30;67.70
60848;DHT22;46681;47.696;9.140;2023-05-14T02:31:47;14.30;67.70
60848;DHT22;46681;47.696;9.140;2023-05-14T02:34:14;14.30;67.60
60848;DHT22;46681;47.696;9.140;2023-05-14T02:36:41;14.30;67.70
60848;DHT22;46681;47.696;9.140;2023-05-14T02:39:06;14.30;67.70
60848;DHT22;46681;47.696;9.140;2023-05-14T02:41:35;14.30;67.70
60848;DHT22;46681;47.696;9.140;2023-05-14T02:44:00;14.30;67.60
60848;DHT22;46681;47.696;9.140;2023-05-14T02:46:27;14.30;67.80
60848;DHT22;46681;47.696;9.140;2023-05-14T02:48:56;14.30;67.70
60848;DHT22;46681;47.696;9.140;2023-05-14T02:51:24;14.30;67.70
60848;DHT22;46681;47.696;9.140;2023-05-14T02:53:51;14.30;67.70
60848;DHT22;46681;47.696;9.140;2023-05-14T02:56:23;14.30;67.80
60848;DHT22;46681;47.696;9.140;2023-05-14T02:58:51;14.30;67.80
60848;DHT22;46681;47.696;9.140;2023-05-14T03:01:21;14.30;67.80
60848;DHT22;46681;47.696;9.140;2023-05-14T03:03:49;14.30;67.90
60848;DHT22;46681;47.696;9.140;2023-05-14T03:06:16;14.30;67.90
60848;DHT22;46681;47.696;9.140;2023-05-14T03:08:42;14.30;68.00
60848;DHT22;46681;47.696;9.140;2023-05-14T03:11:15;14.30;67.90
60848;DHT22;46681;47.696;9.140;2023-05-14T03:13:45;14.30;67.80
60848;DHT22;46681;47.696;9.140;2023-05-14T03:16:12;14.30;68.00
60848;DHT22;46681;47.696;9.140;2023-05-14T03:18:37;14.30;68.00
60848;DHT22;46681;47.696;9.140;2023-05-14T03:21:03;14.30;68.00
60848;DHT22;46681;47.696;9.140;2023-05-14T03:23:30;14.30;68.10
60848;DHT22;46681;47.696;9.140;2023-05-14T03:26:00;14.30;68.20
60848;DHT22;46681;47.696;9.140;2023-05-14T03:28:26;14.30;68.10
60848;DHT22;46681;47.696;9.140;2023-05-14T03:30:53;14.30;68.00
60848;DHT22;46681;47.696;9.140;2023-05-14T03:33:22;14.30;68.10
60848;DHT22;46681;47.696;9.140;2023-05-14T03:35:47;14.30;68.10
60848;DHT22;46681;47.696;9.140;2023-05-14T03:38:13;14.30;68.10
60848;DHT22;46681;47.696;9.140;2023-05-14T03:40:44;14.30;68.80
60848;DHT22;46681;47.696;9.140;2023-05-14T03:43:11;14.30;68.20
60848;DHT22;46681;47.696;9.140;2023-05-14T03:45:40;14.30;68.10
60848;DHT22;46681;47.696;9.140;2023-05-14T03:48:08;14.30;68.10
60848;DHT22;46681;47.696;9.140;2023-05-14T03:50:35;14.30;68.20
60848;DHT22;46681;47.696;9.140;2023-05-14T03:53:00;14.30;68.20
60848;DHT22;46681;47.696;9.140;2023-05-14T03:55:31;14.30;68.20
60848;DHT22;46681;47.696;9.140;2023-05-14T03:57:59;14.30;68.20
60848;DHT22;46681;47.696;9.140;2023-05-14T04:00:29;14.30;68.30
60848;DHT22;46681;47.696;9.140;2023-05-14T04:02:57;14.30;68.30
60848;DHT22;46681;47.696;9.140;2023-05-14T04:05:26;14.30;68.30
60848;DHT22;46681;47.696;9.140;2023-05-14T04:07:52;14.30;68.30
60848;DHT22;46681;47.696;9.140;2023-05-14T04:10:19;14.30;68.30
60848;DHT22;46681;47.696;9.140;2023-05-14T04:12:46;14.30;68.30
60848;DHT22;46681;47.696;9.140;2023-05-14T04:15:13;14.30;68.30
60848;DHT22;46681;47.696;9.140;2023-05-14T04:17:40;14.30;68.50
60848;DHT22;46681;47.696;9.140;2023-05-14T04:20:11;14.30;68.50
60848;DHT22;46681;47.696;9.140;2023-05-14T04:22:37;14.30;68.40
60848;DHT22;46681;47.696;9.140;2023-05-14T04:25:04;14.30;68.30
60848;DHT22;46681;47.696;9.140;2023-05-14T04:27:32;14.30;68.50
60848;DHT22;46681;47.696;9.140;2023-05-14T04:30:02;14.30;68.50
60848;DHT22;46681;47.696;9.140;2023-05-14T04:32:28;14.30;68.50
60848;DHT22;46681;47.696;9.140;2023-05-14T04:34:55;14.30;68.40
60848;DHT22;46681;47.696;9.140;2023-05-14T04:37:22;14.30;68.40
60848;DHT22;46681;47.696;9.140;2023-05-14T04:39:52;14.30;68.40
60848;DHT22;46681;47.696;9.140;2023-05-14T04:42:18;14.30;68.70
60848;DHT22;46681;47.696;9.140;2023-05-14T04:44:49;14.30;69.10
60848;DHT22;46681;47.696;9.140;2023-05-14T04:47:17;14.30;68.90
60848;DHT22;46681;47.696;9.140;2023-05-14T04:49:42;14.30;69.10
60848;DHT22;46681;47.696;9.140;2023-05-14T04:52:14;14.30;69.10
60848;DHT22;46681;47.696;9.140;2023-05-14T04:54:39;14.30;69.00
60848;DHT22;46681;47.696;9.140;2023-05-14T04:57:07;14.30;69.30
60848;DHT22;46681;47.696;9.140;2023-05-14T04:59:35;14.30;69.40
60848;DHT22;46681;47.696;9.140;2023-05-14T05:02:03;14.40;71.60
60848;DHT22;46681;47.696;9.140;2023-05-14T05:04:30;14.40;74.70
60848;DHT22;46681;47.696;9.140;2023-05-14T05:06:58;14.50;75.40
60848;DHT22;46681;47.696;9.140;2023-05-14T05:09:28;14.50;73.50
60848;DHT22;46681;47.696;9.140;2023-05-14T05:11:53;14.60;75.00
60848;DHT22;46681;47.696;9.140;2023-05-14T05:14:19;14.60;74.60
60848;DHT22;46681;47.696;9.140;2023-05-14T05:16:45;14.70;75.40
60848;DHT22;46681;47.696;9.140;2023-05-14T05:19:15;14.70;74.70
60848;DHT22;46681;47.696;9.140;2023-05-14T05:21:41;14.70;74.00
60848;DHT22;46681;47.696;9.140;2023-05-14T05:24:08;14.70;74.10
60848;DHT22;46681;47.696;9.140;2023-05-14T05:26:41;14.80;76.10
60848;DHT22;46681;47.696;9.140;2023-05-14T05:29:10;14.80;76.50
60848;DHT22;46681;47.696;9.140;2023-05-14T05:31:35;14.90;76.30
60848;DHT22;46681;47.696;9.140;2023-05-14T05:34:01;14.90;77.20
60848;DHT22;46681;47.696;9.140;2023-05-14T05:36:28;15.00;76.70
60848;DHT22;46681;47.696;9.140;2023-05-14T05:38:55;15.10;76.00
60848;DHT22;46681;47.696;9.140;2023-05-14T05:41:24;15.20;76.00
60848;DHT22;46681;47.696;9.140;2023-05-14T05:43:51;15.30;76.00
60848;DHT22;46681;47.696;9.140;2023-05-14T05:46:28;15.30;75.70
60848;DHT22;46681;47.696;9.140;2023-05-14T05:48:55;15.30;75.30
60848;DHT22;46681;47.696;9.140;2023-05-14T05:51:21;15.30;75.70
60848;DHT22;46681;47.696;9.140;2023-05-14T05:53:48;15.30;75.40
60848;DHT22;46681;47.696;9.140;2023-05-14T05:56:15;15.40;75.30
60848;DHT22;46681;47.696;9.140;2023-05-14T05:58:43;15.40;75.60
60848;DHT22;46681;47.696;9.140;2023-05-14T06:01:12;15.50;75.70
60848;DHT22;46681;47.696;9.140;2023-05-14T06:03:38;15.50;75.20
60848;DHT22;46681;47.696;9.140;2023-05-14T06:06:08;15.60;75.10
60848;DHT22;46681;47.696;9.140;2023-05-14T06:08:41;15.60;74.90
60848;DHT22;46681;47.696;9.140;2023-05-14T06:11:11;15.60;74.80
60848;DHT22;46681;47.696;9.140;2023-05-14T06:13:40;15.60;74.60
60848;DHT22;46681;47.696;9.140;2023-05-14T06:16:05;15.70;74.90
60848;DHT22;46681;47.696;9.140;2023-05-14T06:18:32;15.70;75.10
60848;DHT22;46681;47.696;9.140;2023-05-14T06:20:59;15.70;74.90
60848;DHT22;46681;47.696;9.140;2023-05-14T06:23:25;15.80;74.80
60848;DHT22;46681;47.696;9.140;2023-05-14T06:25:52;15.50;74.40
60848;DHT22;46681;47.696;9.140;2023-05-14T06:28:17;15.30;74.90
60848;DHT22;46681;47.696;9.140;2023-05-14T06:30:48;15.30;76.20
60848;DHT22;46681;47.696;9.140;2023-05-14T06:33:21;15.30;76.30
60848;DHT22;46681;47.696;9.140;2023-05-14T06:35:58;15.50;76.00
60848;DHT22;46681;47.696;9.140;2023-05-14T06:38:23;15.50;75.60
60848;DHT22;46681;47.696;9.140;2023-05-14T06:40:49;15.50;75.30
60848;DHT22;46681;47.696;9.140;2023-05-14T06:43:16;15.60;75.60
60848;DHT22;46681;47.696;9.140;2023-05-14T06:45:51;15.50;75.60
60848;DHT22;46681;47.696;9.140;2023-05-14T06:48:24;15.50;76.00
60848;DHT22;46681;47.696;9.140;2023-05-14T06:50:52;15.50;76.20
60848;DHT22;46681;47.696;9.140;2023-05-14T06:53:26;15.50;75.60
60848;DHT22;46681;47.696;9.140;2023-05-14T06:56:11;15.50;75.80
60848;DHT22;46681;47.696;9.140;2023-05-14T06:58:39;15.40;75.10
60848;DHT22;46681;47.696;9.140;2023-05-14T07:01:10;15.30;75.00
60848;DHT22;46681;47.696;9.140;2023-05-14T07:03:37;15.10;75.00
60848;DHT22;46681;47.696;9.140;2023-05-14T07:06:03;15.10;75.00
60848;DHT22;46681;47.696;9.140;2023-05-14T07:08:33;15.00;75.10
60848;DHT22;46681;47.696;9.140;2023-05-14T07:11:00;14.90;75.10
60848;DHT22;46681;47.696;9.140;2023-05-14T07:13:27;14.90;75.10
60848;DHT22;46681;47.696;9.140;2023-05-14T07:15:54;14.90;75.10
60848;DHT22;46681;47.696;9.140;2023-05-14T07:18:21;14.80;75.20
60848;DHT22;46681;47.696;9.140;2023-05-14T07:20:52;14.80;75.20
60848;DHT22;46681;47.696;9.140;2023-05-14T07:23:17;14.80;75.20
60848;DHT22;46681;47.696;9.140;2023-05-14T07:25:46;14.80;75.40
60848;DHT22;46681;47.696;9.140;2023-05-14T07:28:13;14.80;75.30
60848;DHT22;46681;47.696;9.140;2023-05-14T07:30:39;14.80;75.40
60848;DHT22;46681;47.696;9.140;2023-05-14T07:33:04;14.80;75.50
60848;DHT22;46681;47.696;9.140;2023-05-14T07:35:31;14.80;75.50
60848;DHT22;46681;47.696;9.140;2023-05-14T07:38:03;14.90;75.50
60848;DHT22;46681;47.696;9.140;2023-05-14T07:40:30;14.90;75.30
60848;DHT22;46681;47.696;9.140;2023-05-14T07:43:04;14.90;75.50
60848;DHT22;46681;47.696;9.140;2023-05-14T07:45:31;14.90;75.60
60848;DHT22;46681;47.696;9.140;2023-05-14T07:48:02;15.00;75.50
60848;DHT22;46681;47.696;9.140;2023-05-14T07:50:36;15.00;76.00
60848;DHT22;46681;47.696;9.140;2023-05-14T07:53:04;15.00;76.30
60848;DHT22;46681;47.696;9.140;2023-05-14T07:55:35;15.10;77.90
60848;DHT22;46681;47.696;9.140;2023-05-14T07:58:22;15.20;76.80
60848;DHT22;46681;47.696;9.140;2023-05-14T08:00:48;15.40;78.10
60848;DHT22;46681;47.696;9.140;2023-05-14T08:03:13;15.60;77.60
60848;DHT22;46681;47.696;9.140;2023-05-14T08:05:44;15.80;77.10
60848;DHT22;46681;47.696;9.140;2023-05-14T08:08:11;15.90;76.20
60848;DHT22;46681;47.696;9.140;2023-05-14T08:10:38;16.00;75.70
60848;DHT22;46681;47.696;9.140;2023-05-14T08:13:07;16.10;74.80
60848;DHT22;46681;47.696;9.140;2023-05-14T08:15:32;16.20;74.20
60848;DHT22;46681;47.696;9.140;2023-05-14T08:18:13;16.30;74.40
60848;DHT22;46681;47.696;9.140;2023-05-14T08:20:40;16.40;74.60
60848;DHT22;46681;47.696;9.140;2023-05-14T08:23:14;16.40;74.90
60848;DHT22;46681;47.696;9.140;2023-05-14T08:25:41;16.40;73.00
60848;DHT22;46681;47.696;9.140;2023-05-14T08:28:15;16.20;72.70
60848;DHT22;46681;47.696;9.140;2023-05-14T08:31:03;16.10;72.90
60848;DHT22;46681;47.696;9.140;2023-05-14T08:33:34;16.10;72.80
60848;DHT22;46681;47.696;9.140;2023-05-14T08:36:05;16.20;72.70
60848;DHT22;46681;47.696;9.140;2023-05-14T08:38:38;16.20;72.60
60848;DHT22;46681;47.696;9.140;2023-05-14T08:41:08;16.30;72.60
60848;DHT22;46681;47.696;9.140;2023-05-14T08:46:31;16.30;72.30
60848;DHT22;46681;47.696;9.140;2023-05-14T08:52:22;16.40;72.40
60848;DHT22;46681;47.696;9.140;2023-05-14T08:54:51;16.40;72.70
60848;DHT22;46681;47.696;9.140;2023-05-14T08:57:31;16.40;72.50
60848;DHT22;46681;47.696;9.140;2023-05-14T09:00:04;16.50;72.40
60848;DHT22;46681;47.696;9.140;2023-05-14T09:02:31;16.60;72.60
60848;DHT22;46681;47.696;9.140;2023-05-14T09:05:07;16.70;72.30
60848;DHT22;46681;47.696;9.140;2023-05-14T09:07:48;16.80;72.20
60848;DHT22;46681;47.696;9.140;2023-05-14T09:10:15;16.80;71.90
60848;DHT22;46681;47.696;9.140;2023-05-14T09:12:42;16.90;72.00
60848;DHT22;46681;47.696;9.140;2023-05-14T09:15:15;17.00;71.80
60848;DHT22;46681;47.696;9.140;2023-05-14T09:18:04;17.00;71.50
60848;DHT22;46681;47.696;9.140;2023-05-14T09:20:44;17.00;71.80
60848;DHT22;46681;47.696;9.140;2023-05-14T09:23:15;17.00;71.70
60848;DHT22;46681;47.696;9.140;2023-05-14T09:26:02;17.10;71.40
60848;DHT22;46681;47.696;9.140;2023-05-14T09:28:52;17.00;72.50
60848;DHT22;46681;47.696;9.140;2023-05-14T09:32:06;17.00;73.00
60848;DHT22;46681;47.696;9.140;2023-05-14T09:34:42;17.00;72.90
60848;DHT22;46681;47.696;9.140;2023-05-14T09:37:12;17.00;72.40
60848;DHT22;46681;47.696;9.140;2023-05-14T09:39:44;17.00;71.70
60848;DHT22;46681;47.696;9.140;2023-05-14T09:42:25;17.00;71.40
60848;DHT22;46681;47.696;9.140;2023-05-14T09:44:55;17.00;71.40
60848;DHT22;46681;47.696;9.140;2023-05-14T09:47:30;17.00;71.40
60848;DHT22;46681;47.696;9.140;2023-05-14T09:50:25;17.00;71.00
60848;DHT22;46681;47.696;9.140;2023-05-14T09:53:07;17.00;70.70
60848;DHT22;46681;47.696;9.140;2023-05-14T09:58:53;17.20;70.10
60848;DHT22;46681;47.696;9.140;2023-05-14T10:01:30;17.30;69.70
60848;DHT22;46681;47.696;9.140;2023-05-14T10:04:28;17.40;69.40
60848;DHT22;46681;47.696;9.140;2023-05-14T10:07:13;17.50;69.00
60848;DHT22;46681;47.696;9.140;2023-05-14T10:09:43;17.60;68.70
60848;DHT22;46681;47.696;9.140;2023-05-14T10:12:35;17.60;68.50
60848;DHT22;46681;47.696;9.140;2023-05-14T10:18:48;17.80;68.00
60848;DHT22;46681;47.696;9.140;2023-05-14T10:21:30;17.80;67.60
60848;DHT22;46681;47.696;9.140;2023-05-14T10:27:51;17.90;67.00
60848;DHT22;46681;47.696;9.140;2023-05-14T10:30:22;18.00;66.80
60848;DHT22;46681;47.696;9.140;2023-05-14T10:33:28;18.00;66.10
60848;DHT22;46681;47.696;9.140;2023-05-14T10:36:27;18.00;65.70
60848;DHT22;46681;47.696;9.140;2023-05-14T10:40:01;18.00;65.90
60848;DHT22;46681;47.696;9.140;2023-05-14T10:42:50;18.20;65.40
60848;DHT22;46681;47.696;9.140;2023-05-14T10:45:37;18.50;65.00
60848;DHT22;46681;47.696;9.140;2023-05-14T10:51:30;19.00;63.80
60848;DHT22;46681;47.696;9.140;2023-05-14T10:57:42;19.50;61.00
60848;DHT22;46681;47.696;9.140;2023-05-14T11:00:24;19.80;60.20
60848;DHT22;46681;47.696;9.140;2023-05-14T11:06:46;20.30;58.40
60848;DHT22;46681;47.696;9.140;2023-05-14T11:09:23;20.30;58.50
60848;DHT22;46681;47.696;9.140;2023-05-14T11:15:27;19.90;59.80
60848;DHT22;46681;47.696;9.140;2023-05-14T11:17:57;19.90;59.70
60848;DHT22;46681;47.696;9.140;2023-05-14T11:24:03;20.00;59.30
60848;DHT22;46681;47.696;9.140;2023-05-14T11:26:37;20.00;57.80
60848;DHT22;46681;47.696;9.140;2023-05-14T11:32:38;19.60;57.50
60848;DHT22;46681;47.696;9.140;2023-05-14T11:38:32;19.50;57.00
60848;DHT22;46681;47.696;9.140;2023-05-14T11:41:32;19.50;56.70
60848;DHT22;46681;47.696;9.140;2023-05-14T11:44:53;19.60;57.10
60848;DHT22;46681;47.696;9.140;2023-05-14T11:47:49;19.70;56.90
60848;DHT22;46681;47.696;9.140;2023-05-14T11:50:16;19.80;56.20
60848;DHT22;46681;47.696;9.140;2023-05-14T11:56:12;19.80;55.50
60848;DHT22;46681;47.696;9.140;2023-05-14T12:05:15;19.70;54.30
60848;DHT22;46681;47.696;9.140;2023-05-14T12:14:17;19.90;54.30
60848;DHT22;46681;47.696;9.140;2023-05-14T12:17:22;20.20;53.70
60848;DHT22;46681;47.696;9.140;2023-05-14T12:20:23;20.20;53.50
60848;DHT22;46681;47.696;9.140;2023-05-14T12:23:15;20.00;52.90
60848;DHT22;46681;47.696;9.140;2023-05-14T12:26:03;20.00;52.60
60848;DHT22;46681;47.696;9.140;2023-05-14T12:31:46;20.40;51.90
60848;DHT22;46681;47.696;9.140;2023-05-14T12:37:46;20.30;51.30
60848;DHT22;46681;47.696;9.140;2023-05-14T12:40:30;20.50;50.40
60848;DHT22;46681;47.696;9.140;2023-05-14T12:56:03;20.40;51.90
60848;DHT22;46681;47.696;9.140;2023-05-14T13:01:40;20.60;53.10
60848;DHT22;46681;47.696;9.140;2023-05-14T13:10:37;21.00;53.60
60848;DHT22;46681;47.696;9.140;2023-05-14T13:16:30;21.50;52.80
60848;DHT22;46681;47.696;9.140;2023-05-14T13:19:19;21.70;52.40
60848;DHT22;46681;47.696;9.140;2023-05-14T13:25:25;22.10;51.50
60848;DHT22;46681;47.696;9.140;2023-05-14T13:34:19;22.70;49.90
60848;DHT22;46681;47.696;9.140;2023-05-14T13:40:21;22.50;50.20
60848;DHT22;46681;47.696;9.140;2023-05-14T13:43:09;22.40;49.80
60848;DHT22;46681;47.696;9.140;2023-05-14T13:52:22;22.20;49.80
60848;DHT22;46681;47.696;9.140;2023-05-14T14:01:07;21.70;49.00
60848;DHT22;46681;47.696;9.140;2023-05-14T14:06:56;21.90;49.00
60848;DHT22;46681;47.696;9.140;2023-05-14T14:10:02;21.80;49.20
60848;DHT22;46681;47.696;9.140;2023-05-14T14:12:46;21.90;49.40
60848;DHT22;46681;47.696;9.140;2023-05-14T14:21:48;21.90;50.50
60848;DHT22;46681;47.696;9.140;2023-05-14T14:27:30;21.80;50.40
60848;DHT22;46681;47.696;9.140;2023-05-14T14:30:01;21.80;50.10
60848;DHT22;46681;47.696;9.140;2023-05-14T14:32:57;21.80;48.90
60848;DHT22;46681;47.696;9.140;2023-05-14T14:35:54;21.80;50.70
60848;DHT22;46681;47.696;9.140;2023-05-14T14:38:28;21.60;51.70
60848;DHT22;46681;47.696;9.140;2023-05-14T14:41:10;21.60;51.80
60848;DHT22;46681;47.696;9.140;2023-05-14T14:50:49;21.40;50.20
60848;DHT22;46681;47.696;9.140;2023-05-14T14:53:45;21.30;52.90
60848;DHT22;46681;47.696;9.140;2023-05-14T14:56:25;21.20;52.30
60848;DHT22;46681;47.696;9.140;2023-05-14T14:58:55;21.20;52.40
60848;DHT22;46681;47.696;9.140;2023-05-14T15:04:47;21.20;50.70
60848;DHT22;46681;47.696;9.140;2023-05-14T15:07:50;21.20;51.10
60848;DHT22;46681;47.696;9.140;2023-05-14T15:10:56;21.20;51.80
60848;DHT22;46681;47.696;9.140;2023-05-14T15:13:44;21.20;51.30
60848;DHT22;46681;47.696;9.140;2023-05-14T15:16:31;21.20;50.50
60848;DHT22;46681;47.696;9.140;2023-05-14T15:18:59;21.10;50.40
60848;DHT22;46681;47.696;9.140;2023-05-14T15:24:16;21.00;50.70
60848;DHT22;46681;47.696;9.140;2023-05-14T15:26:48;21.00;51.40
60848;DHT22;46681;47.696;9.140;2023-05-14T15:29:21;21.00;51.90
60848;DHT22;46681;47.696;9.140;2023-05-14T15:32:12;21.00;51.90
60848;DHT22;46681;47.696;9.140;2023-05-14T15:35:11;21.00;52.00
60848;DHT22;46681;47.696;9.140;2023-05-14T15:38:11;20.90;51.90
60848;DHT22;46681;47.696;9.140;2023-05-14T15:40:54;20.80;52.30
60848;DHT22;46681;47.696;9.140;2023-05-14T15:43:47;20.70;52.70
60848;DHT22;46681;47.696;9.140;2023-05-14T15:46:30;20.70;52.30
60848;DHT22;46681;47.696;9.140;2023-05-14T15:48:58;20.70;52.60
60848;DHT22;46681;47.696;9.140;2023-05-14T15:51:38;20.60;52.80
60848;DHT22;46681;47.696;9.140;2023-05-14T15:54:13;20.60;53.30
60848;DHT22;46681;47.696;9.140;2023-05-14T15:56:42;20.50;53.30
60848;DHT22;46681;47.696;9.140;2023-05-14T15:59:15;20.50;53.90
60848;DHT22;46681;47.696;9.140;2023-05-14T16:01:46;20.40;54.70
60848;DHT22;46681;47.696;9.140;2023-05-14T16:04:28;20.20;55.50
60848;DHT22;46681;47.696;9.140;2023-05-14T16:07:18;19.90;56.10
60848;DHT22;46681;47.696;9.140;2023-05-14T16:09:56;19.90;56.60
60848;DHT22;46681;47.696;9.140;2023-05-14T16:12:27;19.80;56.70
60848;DHT22;46681;47.696;9.140;2023-05-14T16:15:02;19.80;57.20
60848;DHT22;46681;47.696;9.140;2023-05-14T16:17:40;19.70;57.60
60848;DHT22;46681;47.696;9.140;2023-05-14T16:20:34;19.70;58.00
60848;DHT22;46681;47.696;9.140;2023-05-14T16:23:00;19.60;58.70
60848;DHT22;46681;47.696;9.140;2023-05-14T16:25:30;19.60;59.00
60848;DHT22;46681;47.696;9.140;2023-05-14T16:28:03;19.50;59.50
60848;DHT22;46681;47.696;9.140;2023-05-14T16:30:43;19.50;59.70
60848;DHT22;46681;47.696;9.140;2023-05-14T16:33:10;19.40;60.00
60848;DHT22;46681;47.696;9.140;2023-05-14T16:35:49;19.40;60.30
60848;DHT22;46681;47.696;9.140;2023-05-14T16:38:16;19.30;60.80
60848;DHT22;46681;47.696;9.140;2023-05-14T16:40:53;19.30;61.20
60848;DHT22;46681;47.696;9.140;2023-05-14T16:43:41;19.20;61.30
60848;DHT22;46681;47.696;9.140;2023-05-14T16:46:18;19.20;61.80
60848;DHT22;46681;47.696;9.140;2023-05-14T16:48:54;19.10;61.60
60848;DHT22;46681;47.696;9.140;2023-05-14T16:51:24;19.10;61.30
60848;DHT22;46681;47.696;9.140;2023-05-14T16:54:09;19.00;61.70
60848;DHT22;46681;47.696;9.140;2023-05-14T16:56:46;19.00;61.80
60848;DHT22;46681;47.696;9.140;2023-05-14T16:59:17;18.90;62.20
60848;DHT22;46681;47.696;9.140;2023-05-14T17:01:55;18.80;62.10
60848;DHT22;46681;47.696;9.140;2023-05-14T17:04:29;18.80;62.40
60848;DHT22;46681;47.696;9.140;2023-05-14T17:07:04;18.70;62.70
60848;DHT22;46681;47.696;9.140;2023-05-14T17:09:33;18.70;62.70
60848;DHT22;46681;47.696;9.140;2023-05-14T17:12:02;18.60;62.90
60848;DHT22;46681;47.696;9.140;2023-05-14T17:14:29;18.60;63.20
60848;DHT22;46681;47.696;9.140;2023-05-14T17:17:02;18.50;63.50
60848;DHT22;46681;47.696;9.140;2023-05-14T17:19:53;18.50;64.20
60848;DHT22;46681;47.696;9.140;2023-05-14T17:22:21;18.40;63.90
60848;DHT22;46681;47.696;9.140;2023-05-14T17:24:53;18.40;64.10
60848;DHT22;46681;47.696;9.140;2023-05-14T17:27:23;18.40;64.50
60848;DHT22;46681;47.696;9.140;2023-05-14T17:29:57;18.30;64.80
60848;DHT22;46681;47.696;9.140;2023-05-14T17:32:23;18.30;64.80
60848;DHT22;46681;47.696;9.140;2023-05-14T17:34:57;18.20;64.80
60848;DHT22;46681;47.696;9.140;2023-05-14T17:37:28;18.20;65.20
60848;DHT22;46681;47.696;9.140;2023-05-14T17:39:59;18.20;65.40
60848;DHT22;46681;47.696;9.140;2023-05-14T17:42:26;18.10;65.30
60848;DHT22;46681;47.696;9.140;2023-05-14T17:45:00;18.10;65.50
60848;DHT22;46681;47.696;9.140;2023-05-14T17:47:35;18.00;65.70
60848;DHT22;46681;47.696;9.140;2023-05-14T17:50:06;18.00;65.80
60848;DHT22;46681;47.696;9.140;2023-05-14T17:52:41;18.00;66.00
60848;DHT22;46681;47.696;9.140;2023-05-14T17:55:16;17.90;66.00
60848;DHT22;46681;47.696;9.140;2023-05-14T17:57:46;17.90;66.60
60848;DHT22;46681;47.696;9.140;2023-05-14T18:00:12;17.80;66.50
60848;DHT22;46681;47.696;9.140;2023-05-14T18:02:49;17.80;66.80
60848;DHT22;46681;47.696;9.140;2023-05-14T18:05:15;17.70;66.60
60848;DHT22;46681;47.696;9.140;2023-05-14T18:07:45;17.70;66.60
60848;DHT22;46681;47.696;9.140;2023-05-14T18:10:18;17.60;66.90
60848;DHT22;46681;47.696;9.140;2023-05-14T18:12:50;17.60;67.30
60848;DHT22;46681;47.696;9.140;2023-05-14T18:15:18;17.50;67.20
60848;DHT22;46681;47.696;9.140;2023-05-14T18:17:47;17.50;67.30
60848;DHT22;46681;47.696;9.140;2023-05-14T18:20:18;17.50;68.20
60848;DHT22;46681;47.696;9.140;2023-05-14T18:22:45;17.50;68.00
60848;DHT22;46681;47.696;9.140;2023-05-14T18:25:12;17.50;67.90
60848;DHT22;46681;47.696;9.140;2023-05-14T18:27:46;17.40;67.90
60848;DHT22;46681;47.696;9.140;2023-05-14T18:30:18;17.40;68.00
60848;DHT22;46681;47.696;9.140;2023-05-14T18:32:53;17.30;68.20
60848;DHT22;46681;47.696;9.140;2023-05-14T18:35:20;17.30;67.80
60848;DHT22;46681;47.696;9.140;2023-05-14T18:37:49;17.30;68.60